Time;durP1;ratioP1;P1;durP2;ratioP2;P2;SDS_P1;SDS_P2;PMS_P1;PMS_P2;Temp;Humidity;BMP_temperature;BMP_pressure;BME280_temperature;BME280_humidity;BME280_pressure;Samples;Min_cycle;Max_cycle;Signal;HPM_P1;HPM_P2
2023/08/23 00:01:58;;;;;;;17.63;10.98;;;15.20;99.90;;;16.51;100.00;100805.75;5095304;28;20033;-79
2023/08/23 00:04:23;;;;;;;15.35;11.07;;;15.20;99.90;;;16.54;100.00;100816.25;5088973;28;20056;-79
2023/08/23 00:06:49;;;;;;;18.65;11.25;;;15.20;99.90;;;16.48;100.00;100811.78;5086977;28;20193;-80
2023/08/23 00:09:16;;;;;;;19.02;11.98;;;15.20;99.90;;;16.50;100.00;100812.34;5081288;28;20044;-80
2023/08/23 00:11:44;;;;;;;17.38;10.93;;;15.20;99.90;;;16.46;100.00;100804.84;5060180;28;20037;-80
2023/08/23 00:14:10;;;;;;;;;;;15.10;99.90;;;16.40;100.00;100798.41;5053777;28;20246;-80
2023/08/23 00:16:36;;;;;;;18.55;12.68;;;15.20;99.90;;;16.45;100.00;100809.53;5064981;28;20376;-80
2023/08/23 00:19:03;;;;;;;19.25;13.05;;;15.20;99.90;;;16.52;100.00;100812.09;5058641;28;20045;-80
2023/08/23 00:21:31;;;;;;;21.63;14.35;;;15.20;99.90;;;16.58;100.00;100807.50;5062068;28;20067;-80
2023/08/23 00:23:57;;;;;;;19.73;12.95;;;15.20;99.90;;;16.60;100.00;100808.91;5056527;28;20041;-80
2023/08/23 00:26:23;;;;;;;15.98;11.73;;;15.30;99.90;;;16.58;100.00;100804.75;5055624;28;20094;-80
2023/08/23 00:28:49;;;;;;;17.25;12.60;;;15.20;99.90;;;16.56;100.00;100820.69;5059995;28;20040;-80
2023/08/23 00:31:15;;;;;;;16.75;11.40;;;15.20;99.90;;;16.52;100.00;100818.44;5053822;28;20045;-79
2023/08/23 00:33:41;;;;;;;18.77;11.52;;;15.20;99.90;;;16.47;100.00;100820.28;5055166;28;20112;-79
2023/08/23 00:36:09;;;;;;;15.52;11.25;;;15.10;99.90;;;16.43;100.00;100814.44;5055247;28;20083;-79
2023/08/23 00:38:35;;;;;;;18.10;12.82;;;15.10;99.90;;;16.41;100.00;100818.53;5051396;28;20464;-79
2023/08/23 00:41:01;;;;;;;20.10;13.35;;;15.00;99.90;;;16.33;100.00;100820.63;5037231;28;20071;-79
2023/08/23 00:43:27;;;;;;;17.90;13.13;;;15.00;99.90;;;16.32;100.00;100812.63;5044236;28;20051;-79
2023/08/23 00:45:53;;;;;;;16.75;12.45;;;15.00;99.90;;;16.33;100.00;100808.78;5060119;28;20033;-80
2023/08/23 00:48:19;;;;;;;15.52;12.10;;;15.00;99.90;;;16.35;100.00;100815.72;5065418;28;20043;-79
2023/08/23 00:50:46;;;;;;;20.33;12.80;;;15.00;99.90;;;16.28;100.00;100812.28;5056096;28;21003;-79
2023/08/23 00:53:14;;;;;;;16.35;12.38;;;14.90;99.90;;;16.28;100.00;100815.03;5055986;28;20111;-80
2023/08/23 00:55:41;;;;;;;18.27;12.43;;;14.90;99.90;;;16.24;100.00;100820.22;5047540;28;20041;-80
2023/08/23 00:58:08;;;;;;;16.65;12.50;;;14.90;99.90;;;16.20;100.00;100810.81;5052660;28;20044;-79
2023/08/23 01:00:36;;;;;;;20.65;13.20;;;14.90;99.90;;;16.16;100.00;100793.09;5056427;28;20396;-79
2023/08/23 01:03:02;;;;;;;16.50;12.53;;;14.90;99.90;;;16.29;100.00;100807.63;5057558;28;20037;-79
2023/08/23 01:06:00;;;;;;;15.77;12.45;;;14.90;99.90;;;16.23;100.00;100809.44;5046090;28;20285;-79
2023/08/23 01:08:40;;;;;;;16.90;11.85;;;14.90;99.90;;;16.22;100.00;100807.78;5053216;28;20040;-79
2023/08/23 01:11:45;;;;;;;16.85;12.18;;;14.90;99.90;;;16.20;100.00;100802.53;5051182;28;20040;-79
2023/08/23 01:14:37;;;;;;;19.80;14.00;;;14.90;99.90;;;16.14;100.00;100792.50;5056587;28;20040;-79
2023/08/23 01:17:07;;;;;;;19.10;13.75;;;14.80;99.90;;;16.17;100.00;100788.44;5057948;28;20033;-80
2023/08/23 01:19:43;;;;;;;18.30;14.50;;;14.80;99.90;;;16.20;100.00;100787.94;5054325;28;20037;-79
2023/08/23 01:22:16;;;;;;;20.02;13.85;;;14.90;99.90;;;16.18;100.00;100781.84;5060042;28;20496;-79
2023/08/23 01:24:42;;;;;;;16.73;12.57;;;14.80;99.90;;;16.20;100.00;100788.78;5030705;28;20052;-79
2023/08/23 01:27:08;;;;;;;17.75;13.15;;;14.80;99.90;;;16.14;100.00;100787.00;5053532;28;20533;-79
2023/08/23 01:29:34;;;;;;;21.70;14.38;;;14.80;99.90;;;16.11;100.00;100798.53;5040691;28;20143;-79
2023/08/23 01:32:14;;;;;;;21.25;14.13;;;14.80;99.90;;;16.05;100.00;100796.78;5050240;28;20556;-79
2023/08/23 01:34:51;;;;;;;22.25;14.10;;;14.70;99.90;;;16.08;100.00;100799.03;5053509;28;20041;-79
2023/08/23 01:37:21;;;;;;;23.23;14.82;;;14.70;99.90;;;16.11;100.00;100793.03;5059679;28;20095;-79
2023/08/23 01:39:52;;;;;;;22.10;14.25;;;14.80;99.90;;;16.14;100.00;100792.50;5052458;28;20557;-78
2023/08/23 01:42:21;;;;;;;18.60;14.77;;;14.80;99.90;;;16.04;100.00;100790.44;5058280;28;20037;-79
2023/08/23 01:44:52;;;;;;;19.63;14.38;;;14.70;99.90;;;16.00;100.00;100803.03;5035033;28;20508;-79
2023/08/23 01:47:18;;;;;;;21.27;15.80;;;14.70;99.90;;;15.99;100.00;100808.78;5040086;28;20052;-79
2023/08/23 01:49:44;;;;;;;19.20;15.50;;;14.70;99.90;;;15.96;100.00;100802.72;5055300;28;20049;-79
2023/08/23 01:52:10;;;;;;;23.42;15.68;;;14.60;99.90;;;15.95;100.00;100811.19;5062086;28;20147;-79
2023/08/23 01:54:36;;;;;;;18.80;15.27;;;14.60;99.90;;;15.95;100.00;100806.53;5038133;28;20067;-78
2023/08/23 01:57:02;;;;;;;19.50;15.05;;;14.60;99.90;;;15.91;100.00;100802.63;5062666;28;20044;-78
2023/08/23 01:59:28;;;;;;;23.40;15.85;;;14.60;99.90;;;15.86;100.00;100805.22;5053490;28;20044;-79
2023/08/23 02:01:54;;;;;;;25.27;16.67;;;14.50;99.90;;;15.84;100.00;100798.31;5062994;28;20028;-78
2023/08/23 02:04:21;;;;;;;25.00;17.52;;;14.50;99.90;;;15.87;100.00;100801.41;5050237;28;20125;-78
2023/08/23 02:06:48;;;;;;;22.38;16.30;;;14.50;99.90;;;15.86;100.00;100807.97;5048069;28;20020;-79
2023/08/23 02:09:13;;;;;;;20.98;17.75;;;14.40;99.90;;;15.86;100.00;100813.47;5049572;28;20552;-79
2023/08/23 02:11:39;;;;;;;22.13;17.17;;;14.50;99.90;;;15.79;100.00;100810.06;5040245;28;20052;-78
2023/08/23 02:14:06;;;;;;;22.73;18.02;;;14.40;99.90;;;15.80;100.00;100811.72;5054344;28;20056;-79
2023/08/23 02:16:32;;;;;;;25.73;18.10;;;14.40;99.90;;;15.79;100.00;100821.91;5058690;28;20029;-79
2023/08/23 02:18:59;;;;;;;24.52;18.10;;;14.40;99.90;;;15.78;100.00;100819.41;5040094;28;20052;-79
2023/08/23 02:21:26;;;;;;;26.27;17.55;;;14.40;99.90;;;15.67;100.00;100804.63;5057706;28;20040;-79
2023/08/23 02:23:52;;;;;;;24.77;16.55;;;14.30;99.90;;;15.74;100.00;100829.22;5052837;28;20178;-80
2023/08/23 02:26:18;;;;;;;20.10;15.60;;;14.40;99.90;;;15.61;100.00;100831.19;5052700;28;20075;-80
2023/08/23 02:28:43;;;;;;;19.58;15.95;;;14.20;99.90;;;15.57;100.00;100837.44;5034715;28;20037;-80
2023/08/23 02:31:09;;;;;;;21.00;17.45;;;14.20;99.90;;;15.50;100.00;100840.34;5050470;28;20040;-80
2023/08/23 02:33:35;;;;;;;23.45;17.80;;;14.10;99.90;;;15.58;100.00;100830.88;5052258;28;20036;-80
2023/08/23 02:36:02;;;;;;;22.58;18.40;;;14.20;99.90;;;15.61;100.00;100820.19;5034344;28;20484;-80
2023/08/23 02:38:28;;;;;;;25.07;17.80;;;14.20;99.90;;;15.57;100.00;100808.03;5062310;28;20032;-80
2023/08/23 02:40:57;;;;;;;23.30;16.83;;;14.30;99.90;;;15.57;100.00;100819.03;5040462;28;20285;-79
2023/08/23 02:43:24;;;;;;;22.58;15.80;;;14.20;99.90;;;15.50;100.00;100818.34;5053806;28;20036;-80
2023/08/23 02:45:50;;;;;;;22.30;16.17;;;14.10;99.90;;;15.43;100.00;100814.91;5058651;28;20395;-80
2023/08/23 02:48:16;;;;;;;22.58;16.45;;;14.10;99.90;;;15.39;100.00;100815.41;5052460;28;20495;-80
2023/08/23 02:50:43;;;;;;;26.35;17.67;;;14.00;99.90;;;15.38;100.00;100821.97;5058205;28;20122;-80
2023/08/23 02:53:10;;;;;;;25.95;17.20;;;14.00;99.90;;;15.37;100.00;100802.97;5058541;28;20032;-79
2023/08/23 02:55:38;;;;;;;23.08;17.30;;;13.90;99.90;;;15.33;100.00;100807.31;5058877;28;20051;-79
2023/08/23 02:58:05;;;;;;;31.45;20.58;;;13.90;99.90;;;15.38;100.00;100799.16;5058642;28;20124;-80
2023/08/23 03:00:33;;;;;;;28.48;20.48;;;14.00;99.90;;;15.41;100.00;100786.84;5052891;28;20483;-79
2023/08/23 03:03:02;;;;;;;28.35;19.33;;;14.10;99.90;;;15.42;100.00;100800.31;5049010;28;20071;-80
2023/08/23 03:05:28;;;;;;;30.15;20.10;;;14.00;99.90;;;15.39;100.00;100795.31;5054256;28;20040;-80
2023/08/23 03:07:54;;;;;;;27.60;20.55;;;14.00;99.90;;;15.42;100.00;100796.75;5057126;28;20024;-79
2023/08/23 03:10:20;;;;;;;28.25;19.90;;;14.00;99.90;;;15.41;100.00;100792.34;5033404;28;20507;-79
2023/08/23 03:12:46;;;;;;;24.60;19.65;;;14.00;99.90;;;15.39;100.00;100798.06;5049806;28;20034;-79
2023/08/23 03:15:12;;;;;;;26.02;20.08;;;14.00;99.90;;;15.32;100.00;100792.72;5053321;28;20490;-79
2023/08/23 03:17:37;;;;;;;24.58;18.55;;;14.00;99.90;;;15.29;100.00;100806.13;5039424;28;20039;-79
2023/08/23 03:20:04;;;;;;;25.23;19.33;;;13.90;99.90;;;15.23;100.00;100805.19;5031413;28;20033;-79
2023/08/23 03:22:32;;;;;;;26.48;19.63;;;13.80;99.90;;;15.22;100.00;100798.00;5056743;28;20040;-78
2023/08/23 03:24:58;;;;;;;27.35;18.98;;;13.80;99.90;;;15.17;100.00;100797.91;5061535;28;20139;-79
2023/08/23 03:27:24;;;;;;;27.88;20.30;;;13.80;99.90;;;15.19;100.00;100788.34;5065413;28;20044;-80
2023/08/23 03:29:51;;;;;;;26.80;20.30;;;13.80;99.90;;;15.19;100.00;100798.50;5048195;28;20043;-79
2023/08/23 03:32:19;;;;;;;27.75;20.65;;;13.80;99.90;;;15.19;100.00;100788.34;5049202;28;20574;-79
2023/08/23 03:34:46;;;;;;;28.50;21.40;;;13.80;99.90;;;15.20;100.00;100789.19;5050932;28;20043;-79
2023/08/23 03:37:12;;;;;;;28.83;21.48;;;13.80;99.90;;;15.23;100.00;100784.00;5050116;28;20040;-79
2023/08/23 03:39:40;;;;;;;30.48;21.50;;;13.90;99.90;;;15.21;100.00;100788.91;5055689;28;20041;-80
2023/08/23 03:42:05;;;;;;;35.67;21.95;;;13.90;99.90;;;15.17;100.00;100795.16;5067794;28;20032;-79
2023/08/23 03:44:31;;;;;;;32.47;20.15;;;13.80;99.90;;;15.08;100.00;100790.03;5078473;28;20049;-79
2023/08/23 03:46:57;;;;;;;28.73;21.33;;;13.70;99.90;;;15.02;100.00;100802.00;5075353;28;20047;-79
2023/08/23 03:49:23;;;;;;;36.42;22.42;;;13.70;99.90;;;15.01;100.00;100792.09;5050095;28;20045;-80
2023/08/23 03:51:52;;;;;;;31.88;22.90;;;13.70;99.90;;;15.00;100.00;100793.19;5060577;28;20036;-80
2023/08/23 03:54:21;;;;;;;33.63;23.33;;;13.60;99.90;;;14.94;100.00;100786.72;5069997;28;20127;-77
2023/08/23 03:56:47;;;;;;;;;;;13.60;99.90;;;15.00;100.00;100778.63;5065593;28;20545;-77
2023/08/23 03:59:13;;;;;;;34.53;21.10;;;13.70;99.90;;;15.00;100.00;100776.69;5064630;28;19916;-79
2023/08/23 04:01:40;;;;;;;31.27;21.67;;;13.70;99.90;;;15.00;100.00;100770.38;5070030;28;20040;-78
2023/08/23 04:04:06;;;;;;;35.10;23.42;;;13.70;99.90;;;14.96;100.00;100775.53;5064718;28;20043;-78
2023/08/23 04:06:32;;;;;;;33.80;22.55;;;13.60;99.90;;;14.92;100.00;100782.59;5048043;28;20037;-79
2023/08/23 04:08:58;;;;;;;41.08;25.77;;;13.60;99.90;;;14.90;100.00;100776.50;5056651;28;20068;-79
2023/08/23 04:11:25;;;;;;;39.47;24.38;;;13.60;99.90;;;14.85;100.00;100771.72;5058694;28;20053;-79
2023/08/23 04:13:51;;;;;;;35.63;25.90;;;13.50;99.90;;;14.82;100.00;100778.53;5058541;28;20052;-81
2023/08/23 04:16:17;;;;;;;37.67;26.15;;;13.60;99.90;;;14.84;100.00;100772.81;5044006;28;20052;-78
2023/08/23 04:18:44;;;;;;;37.00;23.20;;;13.60;99.90;;;14.78;100.00;100766.34;5065674;28;20032;-80
2023/08/23 04:21:12;;;;;;;37.75;25.38;;;13.60;99.90;;;14.85;100.00;100757.13;5050436;28;20028;-80
2023/08/23 04:23:39;;;;;;;31.20;23.15;;;13.60;99.90;;;14.82;100.00;100758.47;5066183;28;20041;-79
2023/08/23 04:26:05;;;;;;;35.97;24.23;;;13.60;99.90;;;14.84;100.00;100766.47;5061865;28;20032;-76
2023/08/23 04:28:31;;;;;;;39.55;24.98;;;13.60;99.90;;;14.86;100.00;100756.09;5077658;28;20040;-76
2023/08/23 04:31:03;;;;;;;37.13;24.73;;;13.60;99.90;;;14.87;100.00;100750.34;5071082;28;20052;-76
2023/08/23 04:33:36;;;;;;;38.72;24.65;;;13.60;99.90;;;14.87;100.00;100761.31;5070305;28;20119;-75
2023/08/23 04:36:04;;;;;;;35.60;23.88;;;13.60;99.90;;;14.84;100.00;100760.97;5068202;28;20112;-76
2023/08/23 04:38:30;;;;;;;32.00;22.73;;;13.60;99.90;;;14.84;100.00;100761.81;5068456;28;20377;-76
2023/08/23 04:41:05;;;;;;;32.17;22.17;;;13.60;99.90;;;14.81;100.00;100754.88;5061552;28;20373;-75
2023/08/23 04:43:33;;;;;;;34.00;24.73;;;13.50;99.90;;;14.83;100.00;100765.63;5052464;28;20028;-74
2023/08/23 04:46:01;;;;;;;37.88;24.33;;;13.60;99.90;;;14.85;100.00;100757.13;5059082;28;20037;-74
2023/08/23 04:48:27;;;;;;;35.65;24.25;;;13.60;99.90;;;14.88;100.00;100753.94;5050881;28;20087;-75
2023/08/23 04:50:55;;;;;;;40.55;25.70;;;13.70;99.90;;;14.90;100.00;100747.09;5053919;28;20029;-75
2023/08/23 04:53:21;;;;;;;36.88;26.02;;;13.70;99.90;;;14.89;100.00;100742.69;5038353;28;20036;-75
2023/08/23 04:55:48;;;;;;;37.92;24.15;;;13.70;99.90;;;14.97;100.00;100746.97;5033408;28;20492;-75
2023/08/23 04:58:14;;;;;;;36.57;24.00;;;13.70;99.90;;;15.00;100.00;100743.72;5057275;28;20040;-75
2023/08/23 05:00:40;;;;;;;37.50;25.27;;;13.70;99.90;;;15.03;100.00;100740.50;5049647;28;20392;-75
2023/08/23 05:03:06;;;;;;;38.78;25.02;;;13.80;99.90;;;15.12;100.00;100745.59;5060046;28;20040;-76
2023/08/23 05:05:33;;;;;;;36.42;25.17;;;13.90;99.90;;;15.17;100.00;100740.22;5061112;28;20035;-77
2023/08/23 05:07:59;;;;;;;38.90;25.95;;;13.90;99.90;;;15.21;100.00;100733.97;5051961;28;20025;-76
2023/08/23 05:10:26;;;;;;;37.35;26.05;;;14.00;99.90;;;15.29;100.00;100743.72;5045074;28;20045;-76
2023/08/23 05:12:55;;;;;;;38.40;26.45;;;14.00;99.90;;;15.36;100.00;100738.91;5053629;28;20064;-75
2023/08/23 05:15:22;;;;;;;;;;;14.10;99.90;;;15.46;100.00;100734.69;5057654;28;20048;-76
2023/08/23 05:17:48;;;;;;;37.60;25.42;;;14.10;99.90;;;15.49;100.00;100739.69;5044593;28;19928;-76
2023/08/23 05:20:14;;;;;;;38.90;26.17;;;14.20;99.90;;;15.55;100.00;100738.69;5055441;28;20032;-77
2023/08/23 05:22:41;;;;;;;44.63;27.27;;;14.20;99.90;;;15.59;100.00;100733.53;5051825;28;20131;-76
2023/08/23 05:25:07;;;;;;;47.65;27.73;;;14.30;99.90;;;15.65;100.00;100743.53;5050995;28;20469;-78
2023/08/23 05:27:33;;;;;;;44.45;27.15;;;14.30;99.90;;;15.72;100.00;100746.97;5041509;28;20485;-79
2023/08/23 05:30:01;;;;;;;49.70;28.80;;;14.40;99.90;;;15.70;100.00;100746.38;5058682;28;20086;-78
2023/08/23 05:32:26;;;;;;;43.88;27.50;;;14.50;99.90;;;15.82;100.00;100757.31;5050667;28;20090;-78
2023/08/23 05:34:55;;;;;;;42.17;28.25;;;14.50;99.90;;;15.86;100.00;100749.41;5051759;28;20480;-79
2023/08/23 05:37:21;;;;;;;45.55;29.58;;;14.60;99.90;;;15.92;100.00;100741.00;5053339;28;20043;-78
2023/08/23 05:39:47;;;;;;;42.58;28.45;;;14.70;99.90;;;16.07;100.00;100753.34;5036151;28;20451;-78
2023/08/23 05:42:13;;;;;;;45.97;28.92;;;14.80;99.90;;;16.17;100.00;100739.72;5057163;28;20036;-79
2023/08/23 05:44:39;;;;;;;41.80;28.55;;;14.90;99.90;;;16.41;100.00;100756.03;5068349;28;20078;-79
2023/08/23 05:47:05;;;;;;;48.22;28.73;;;15.10;99.90;;;16.53;100.00;100740.25;5061522;28;20029;-78
2023/08/23 05:49:30;;;;;;;48.03;30.75;;;15.20;99.90;;;16.73;100.00;100757.28;5056468;28;20075;-79
2023/08/23 05:51:56;;;;;;;44.70;30.73;;;15.30;99.90;;;16.88;100.00;100754.75;5060391;28;20045;-79
2023/08/23 05:54:23;;;;;;;46.92;31.02;;;15.50;99.90;;;17.01;100.00;100756.31;5058162;28;20040;-79
2023/08/23 05:56:49;;;;;;;48.03;30.83;;;15.60;99.90;;;17.18;100.00;100758.97;5052712;28;20040;-78
2023/08/23 05:59:14;;;;;;;52.90;33.85;;;15.70;99.90;;;17.32;100.00;100764.91;5054395;28;20103;-78
2023/08/23 06:01:40;;;;;;;50.80;32.25;;;15.90;99.90;;;17.49;100.00;100766.72;5060383;28;20037;-78
2023/08/23 06:04:06;;;;;;;53.05;32.08;;;16.00;99.90;;;17.63;100.00;100775.41;5059945;28;20469;-77
2023/08/23 06:06:33;;;;;;;46.25;30.58;;;16.20;99.90;;;17.73;100.00;100794.84;5057047;28;20120;-78
2023/08/23 06:09:00;;;;;;;47.45;29.20;;;16.30;99.90;;;17.82;100.00;100828.31;5053064;28;20037;-79
2023/08/23 06:11:26;;;;;;;43.15;28.63;;;16.40;99.90;;;17.81;100.00;100852.28;5057051;28;20037;-78
2023/08/23 06:13:51;;;;;;;34.28;24.33;;;16.50;99.90;;;18.01;100.00;100897.78;5053968;28;20504;-78
2023/08/23 06:16:17;;;;;;;33.97;23.83;;;16.50;99.90;;;18.16;100.00;100916.41;5048053;28;20052;-78
2023/08/23 06:18:43;;;;;;;32.03;22.58;;;16.70;99.90;;;18.24;100.00;100945.50;5060352;28;20029;-78
2023/08/23 06:21:08;;;;;;;33.40;21.85;;;16.80;99.90;;;18.49;100.00;100953.16;5054613;28;20397;-78
2023/08/23 06:23:36;;;;;;;35.05;20.77;;;17.00;99.90;;;18.71;100.00;100960.53;5052337;28;20056;-79
2023/08/23 06:26:03;;;;;;;31.00;20.75;;;17.10;99.90;;;18.87;100.00;100961.47;5055433;28;20460;-79
2023/08/23 06:28:29;;;;;;;28.27;20.67;;;17.20;99.90;;;19.04;100.00;100986.22;5060915;28;20492;-79
2023/08/23 06:30:57;;;;;;;26.40;17.63;;;17.40;99.90;;;19.03;100.00;101011.41;5058493;28;20076;-77
2023/08/23 06:33:23;;;;;;;23.85;16.20;;;17.50;99.90;;;19.24;100.00;101015.13;5059529;28;20039;-79
2023/08/23 06:35:49;;;;;;;21.30;14.73;;;17.60;99.90;;;19.31;100.00;101007.41;5055474;28;20025;-78
2023/08/23 06:38:15;;;;;;;21.48;14.27;;;17.80;99.90;;;19.40;100.00;101021.59;5053463;28;20037;-76
2023/08/23 06:40:42;;;;;;;18.48;13.27;;;17.90;99.90;;;19.49;100.00;101030.22;5056681;28;20542;-77
2023/08/23 06:43:16;;;;;;;19.60;12.75;;;18.00;99.90;;;19.59;100.00;101051.59;5054076;28;20040;-78
2023/08/23 06:45:42;;;;;;;18.63;11.75;;;18.10;99.90;;;19.72;100.00;101064.09;5062162;28;20120;-78
2023/08/23 06:48:08;;;;;;;19.60;11.63;;;18.30;99.90;;;20.15;100.00;101086.22;5051216;28;20036;-79
2023/08/23 06:50:35;;;;;;;21.13;11.57;;;;;;;20.50;100.00;101099.34;5052138;28;20045;-78
2023/08/23 06:53:01;;;;;;;25.00;10.20;;;;;;;20.67;100.00;101125.97;5053758;28;20519;-80
2023/08/23 06:55:28;;;;;;;15.20;9.23;;;;;;;20.87;100.00;101130.78;5053560;28;20041;-78
2023/08/23 06:57:54;;;;;;;15.25;9.35;;;;;;;21.07;100.00;101123.56;5053654;28;20147;-79
2023/08/23 07:00:20;;;;;;;13.52;8.35;;;;;;;21.22;100.00;101143.00;5032807;28;20473;-78
2023/08/23 07:02:48;;;;;;;16.65;7.80;;;;;;;21.37;100.00;101147.72;5052280;28;20041;-78
2023/08/23 07:05:14;;;;;;;15.48;7.25;;;;;;;21.31;100.00;101146.06;5051983;28;20052;-79
2023/08/23 07:07:40;;;;;;;13.45;7.03;;;;;;;21.59;100.00;101145.75;5057046;28;20090;-77
2023/08/23 07:10:06;;;;;;;13.20;7.47;;;;;;;21.77;100.00;101149.94;5053357;28;20029;-78
2023/08/23 07:12:33;;;;;;;15.45;7.18;;;;;;;21.73;100.00;101169.09;5052042;28;20032;-77
2023/08/23 07:14:59;;;;;;;13.15;7.22;;;;;;;21.86;100.00;101167.69;5054897;28;20428;-77
2023/08/23 07:17:25;;;;;;;14.20;6.88;;;;;;;21.62;100.00;101170.22;5057338;28;20128;-78
2023/08/23 07:19:51;;;;;;;15.63;6.30;;;;;;;21.79;100.00;101178.28;5061599;28;20060;-77
2023/08/23 07:22:17;;;;;;;14.55;6.57;;;;;;;21.92;100.00;101182.41;5047749;28;20033;-79
2023/08/23 07:24:43;;;;;;;14.55;7.20;;;;;;;21.97;100.00;101183.22;5053911;28;20032;-78
2023/08/23 07:27:09;;;;;;;11.10;5.80;;;;;;;22.02;100.00;101187.94;5051682;28;20036;-78
2023/08/23 07:29:36;;;;;;;11.77;6.05;;;;;;;22.17;100.00;101184.28;5056938;28;20033;-78
2023/08/23 07:32:04;;;;;;;13.98;6.93;;;;;;;22.01;100.00;101185.41;5025222;28;20033;-79
2023/08/23 07:34:30;;;;;;;15.95;7.10;;;;;;;22.13;100.00;101178.44;5060976;28;20032;-78
2023/08/23 07:36:56;;;;;;;14.25;6.80;;;;;;;22.25;100.00;101174.53;5059173;28;20041;-78
2023/08/23 07:39:24;;;;;;;12.05;6.82;;;;;;;22.43;100.00;101184.19;5058483;28;20396;-78
2023/08/23 07:41:50;;;;;;;13.77;6.55;;;;;;;22.63;100.00;101182.47;5034351;28;20033;-78
2023/08/23 07:44:16;;;;;;;14.02;7.70;;;;;;;22.55;100.00;101195.84;5051765;28;20484;-80
2023/08/23 07:46:43;;;;;;;11.52;6.90;;;;;;;22.70;100.00;101197.72;5052470;28;20041;-80
2023/08/23 07:49:09;;;;;;;12.80;7.53;;;;;;;22.66;100.00;101190.22;5052429;28;20472;-80
2023/08/23 07:51:35;;;;;;;13.98;6.90;;;;;;;22.80;100.00;101196.81;5052834;28;20072;-80
2023/08/23 07:54:03;;;;;;;16.27;6.47;;;;;;;22.85;100.00;101204.31;5050553;28;20413;-82
2023/08/23 07:56:29;;;;;;;;;;;;;;;22.82;100.00;101205.72;5047797;28;20435;-80
2023/08/23 07:58:55;;;;;;;12.77;6.78;;;;;;;22.68;100.00;101199.97;5063284;28;19966;-80
2023/08/23 08:01:21;;;;;;;13.70;6.65;;;;;;;22.86;100.00;101199.59;5060349;28;20408;-82
2023/08/23 08:03:47;;;;;;;10.70;6.57;;;;;;;22.96;100.00;101200.38;5058695;28;20135;-82
2023/08/23 08:06:13;;;;;;;10.82;6.45;;;;;;;22.75;100.00;101205.19;5055279;28;20400;-81
2023/08/23 08:08:42;;;;;;;14.70;7.45;;;;;;;22.84;100.00;101206.28;5052416;28;20047;-81
2023/08/23 08:11:12;;;;;;;13.93;6.88;;;;;;;22.89;100.00;101187.88;5052476;28;20043;-82
2023/08/23 08:13:38;;;;;;;12.88;6.22;;;;;;;22.65;100.00;101194.13;5066091;28;20049;-82
2023/08/23 08:16:12;;;;;;;11.98;6.80;;;;;;;22.46;100.00;101193.91;5068839;28;20108;-81
2023/08/23 08:18:39;;;;;;;14.55;6.55;;;;;;;22.59;100.00;101192.50;5064649;28;20052;-81
2023/08/23 08:21:05;;;;;;;15.07;7.15;;;;;;;22.74;100.00;101191.59;5066233;28;20037;-81
2023/08/23 08:23:32;;;;;;;11.70;7.18;;;;;;;23.17;100.00;101196.59;5067853;28;20048;-81
2023/08/23 08:25:58;;;;;;;14.55;6.75;;;;;;;23.48;100.00;101205.59;5057871;28;20040;-81
2023/08/23 08:28:25;;;;;;;14.85;6.35;;;;;;;23.67;100.00;101207.66;5055206;28;20044;-82
2023/08/23 08:30:51;;;;;;;12.27;5.82;;;;;;;23.70;100.00;101210.69;5051657;28;20430;-83
2023/08/23 08:33:17;;;;;;;11.60;6.80;;;;;;;23.72;100.00;101215.13;5071068;28;20032;-82
2023/08/23 08:35:43;;;;;;;16.48;6.75;;;;;;;23.62;100.00;101216.91;5068297;28;20067;-82
2023/08/23 08:38:10;;;;;;;12.18;5.82;;;;;;;24.08;100.00;101217.59;5067198;28;20430;-82
2023/08/23 08:40:39;;;;;;;9.45;5.75;;;;;;;24.36;100.00;101220.63;5056629;28;20374;-81
2023/08/23 08:43:06;;;;;;;13.80;6.55;;;;;;;24.30;100.00;101221.81;5043114;28;20082;-82
2023/08/23 08:45:32;;;;;;;9.55;4.85;;;;;;;24.91;100.00;101227.75;5044748;28;20048;-82
2023/08/23 08:47:59;;;;;;;11.13;6.32;;;;;;;25.32;100.00;101229.97;5062401;28;20431;-81
2023/08/23 08:50:34;;;;;;;11.25;5.63;;;;;;;25.50;100.00;101228.31;5034572;28;20045;-82
2023/08/23 08:53:05;;;;;;;10.15;5.20;;;;;;;24.69;100.00;101220.78;5051592;28;20052;-83
2023/08/23 08:55:31;;;;;;;10.50;5.25;;;;;;;24.62;100.00;101231.47;5056853;28;20046;-83
2023/08/23 08:58:00;;;;;;;13.60;4.80;;;;;;;25.36;100.00;101242.19;5052095;28;20040;-82
2023/08/23 09:00:27;;;;;;;9.40;5.18;;;;;;;25.91;100.00;101243.53;5052020;28;20397;-80
2023/08/23 09:02:54;;;;;;;10.43;5.43;;;;;;;26.40;100.00;101226.44;5050510;28;20128;-82
2023/08/23 09:05:24;;;;;;;10.27;5.10;;;;;;;26.82;100.00;101232.81;5052350;28;20488;-82
2023/08/23 09:07:51;;;;;;;12.18;5.80;;;;;;;26.94;100.00;101229.53;5056401;28;20396;-82
2023/08/23 09:10:17;;;;;;;9.48;5.63;;;;;;;25.99;100.00;101231.66;5053344;28;20037;-83
2023/08/23 09:12:43;;;;;;;9.60;5.70;;;;;;;25.32;100.00;101240.28;5051988;28;20551;-84
2023/08/23 09:15:09;;;;;;;11.55;4.95;;;;;;;25.18;100.00;101235.47;5052239;28;20051;-82
2023/08/23 09:17:36;;;;;;;10.02;4.70;;;;;;;23.77;100.00;101237.38;5051802;28;20044;-82
2023/08/23 09:20:09;;;;;;;8.27;4.00;;;;;;;24.24;100.00;101237.75;5051612;28;20115;-82
2023/08/23 09:22:36;;;;;;;8.48;5.03;;;;;;;24.80;100.00;101238.22;5051280;28;20037;-82
2023/08/23 09:25:03;;;;;;;12.25;5.40;;;;;;;25.00;100.00;101237.13;5060648;28;20040;-86
2023/08/23 09:27:30;;;;;;;13.80;5.43;;;;;;;25.01;100.00;101236.00;5065298;28;20036;-88
2023/08/23 09:29:58;;;;;;;9.23;4.25;;;;;;;25.21;100.00;101234.06;5063652;28;20120;-84
2023/08/23 09:32:25;;;;;;;10.27;4.50;;;;;;;25.62;100.00;101236.22;5064588;28;20995;-82
2023/08/23 09:34:52;;;;;;;12.30;4.28;;;;;;;25.89;100.00;101234.63;5053709;28;20119;-83
2023/08/23 09:37:18;;;;;;;10.02;5.75;;;;;;;26.15;100.00;101225.75;5056384;28;20573;-87
2023/08/23 09:39:45;;;;;;;12.68;4.43;;;;;;;26.30;100.00;101227.47;5035936;28;20515;-85
2023/08/23 09:42:14;;;;;;;11.30;5.90;;;;;;;26.02;100.00;101237.78;5043964;28;20597;-90
2023/08/23 09:44:43;;;;;;;13.20;6.30;;;;;;;24.79;100.00;101239.38;5054182;28;20033;-86
2023/08/23 09:47:17;;;;;;;13.95;5.70;;;;;;;24.66;100.00;101232.53;5054862;28;20064;-88
2023/08/23 09:49:44;;;;;;;8.38;4.53;;;;;;;24.64;100.00;101230.03;5052776;28;20518;-91
2023/08/23 09:52:11;;;;;;;11.35;5.65;;;;;;;24.04;100.00;101224.88;5047145;28;20094;-85
2023/08/23 09:55:00;;;;;;;12.00;4.88;;;;;;;24.17;100.00;101232.56;5062051;28;20396;-88
2023/08/23 09:57:27;;;;;;;10.48;5.72;;;;;;;24.12;100.00;101229.78;5059776;28;20465;-88
2023/08/23 09:59:53;;;;;;;9.57;4.80;;;;;;;24.99;100.00;101229.91;5056403;28;20094;-84
2023/08/23 10:02:19;;;;;;;10.13;4.70;;;;;;;24.80;100.00;101227.91;5056144;28;20472;-90
2023/08/23 10:04:45;;;;;;;9.40;4.55;;;;;;;24.34;100.00;101236.81;5047357;28;20028;-87
2023/08/23 10:07:15;;;;;;;9.05;4.57;;;;;;;24.14;100.00;101230.38;5070185;28;20029;-86
2023/08/23 10:09:43;;;;;;;8.00;3.85;;;;;;;24.70;100.00;101225.25;5063845;28;20404;-87
2023/08/23 10:12:10;;;;;;;8.23;4.00;;;;;;;25.12;100.00;101226.34;5050849;28;20124;-85
2023/08/23 10:14:50;;;;;;;8.40;3.85;;;;;;;25.93;100.00;101224.50;5068048;28;21279;-86
2023/08/23 10:17:19;;;;;;;9.50;3.95;;;;;;;26.91;94.78;101223.72;5058567;28;20124;-84
2023/08/23 10:19:49;;;;;;;6.93;4.13;;;;;;;27.16;91.64;101229.88;5052408;28;20055;-79
2023/08/23 10:22:17;;;;;;;10.07;5.47;;;;;;;27.24;85.31;101217.91;5064222;28;20041;-81